sensor_id;sensor_type;location;lat;lon;timestamp;temperature;humidity
69464;DHT22;56665;41.106;16.688;2023-02-26T00:00:44;14.43;78.46
69464;DHT22;56665;41.106;16.688;2023-02-26T00:03:51;14.43;79.19
69464;DHT22;56665;41.106;16.688;2023-02-26T00:06:55;14.40;79.90
69464;DHT22;56665;41.106;16.688;2023-02-26T00:09:59;14.40;80.35
69464;DHT22;56665;41.106;16.688;2023-02-26T00:13:09;14.40;80.60
69464;DHT22;56665;41.106;16.688;2023-02-26T00:16:30;14.41;80.74
69464;DHT22;56665;41.106;16.688;2023-02-26T00:19:34;14.39;80.98
69464;DHT22;56665;41.106;16.688;2023-02-26T00:22:38;14.34;81.27
69464;DHT22;56665;41.106;16.688;2023-02-26T00:25:44;14.37;81.49
69464;DHT22;56665;41.106;16.688;2023-02-26T00:28:48;14.34;81.48
69464;DHT22;56665;41.106;16.688;2023-02-26T00:31:52;14.34;81.44
69464;DHT22;56665;41.106;16.688;2023-02-26T00:34:57;14.36;81.72
69464;DHT22;56665;41.106;16.688;2023-02-26T00:38:06;14.34;81.86
69464;DHT22;56665;41.106;16.688;2023-02-26T00:41:13;14.33;81.85
69464;DHT22;56665;41.106;16.688;2023-02-26T00:44:18;14.41;81.83
69464;DHT22;56665;41.106;16.688;2023-02-26T00:47:36;14.39;81.74
69464;DHT22;56665;41.106;16.688;2023-02-26T00:50:53;14.41;81.94
69464;DHT22;56665;41.106;16.688;2023-02-26T00:54:21;14.41;81.99
69464;DHT22;56665;41.106;16.688;2023-02-26T00:57:27;14.41;81.78
69464;DHT22;56665;41.106;16.688;2023-02-26T01:00:31;14.47;81.62
69464;DHT22;56665;41.106;16.688;2023-02-26T01:03:35;14.49;81.52
69464;DHT22;56665;41.106;16.688;2023-02-26T01:06:43;14.49;81.39
69464;DHT22;56665;41.106;16.688;2023-02-26T01:09:50;14.50;81.40
69464;DHT22;56665;41.106;16.688;2023-02-26T01:12:54;14.47;81.48
69464;DHT22;56665;41.106;16.688;2023-02-26T01:16:07;14.49;81.40
69464;DHT22;56665;41.106;16.688;2023-02-26T01:19:22;14.47;81.33
69464;DHT22;56665;41.106;16.688;2023-02-26T01:22:32;14.47;81.43
69464;DHT22;56665;41.106;16.688;2023-02-26T01:26:01;14.46;81.39
69464;DHT22;56665;41.106;16.688;2023-02-26T01:29:06;14.41;81.48
69464;DHT22;56665;41.106;16.688;2023-02-26T01:32:25;14.49;81.23
69464;DHT22;56665;41.106;16.688;2023-02-26T01:35:45;14.43;81.33
69464;DHT22;56665;41.106;16.688;2023-02-26T01:42:34;14.41;81.66
69464;DHT22;56665;41.106;16.688;2023-02-26T01:49:03;14.34;81.97
69464;DHT22;56665;41.106;16.688;2023-02-26T01:56:12;14.33;82.00
69464;DHT22;56665;41.106;16.688;2023-02-26T01:59:17;14.32;82.08
69464;DHT22;56665;41.106;16.688;2023-02-26T02:02:26;14.30;82.17
69464;DHT22;56665;41.106;16.688;2023-02-26T02:05:43;14.29;82.16
69464;DHT22;56665;41.106;16.688;2023-02-26T02:08:49;14.29;82.18
69464;DHT22;56665;41.106;16.688;2023-02-26T02:15:54;14.29;82.33
69464;DHT22;56665;41.106;16.688;2023-02-26T02:26:22;14.22;82.62
69464;DHT22;56665;41.106;16.688;2023-02-26T02:33:02;14.23;82.65
69464;DHT22;56665;41.106;16.688;2023-02-26T02:36:14;14.18;82.76
69464;DHT22;56665;41.106;16.688;2023-02-26T02:43:00;14.15;83.10
69464;DHT22;56665;41.106;16.688;2023-02-26T02:46:16;14.12;83.07
69464;DHT22;56665;41.106;16.688;2023-02-26T02:52:34;14.12;83.31
69464;DHT22;56665;41.106;16.688;2023-02-26T02:56:18;14.09;83.42
69464;DHT22;56665;41.106;16.688;2023-02-26T02:59:50;14.09;83.39
69464;DHT22;56665;41.106;16.688;2023-02-26T03:03:02;14.08;83.48
69464;DHT22;56665;41.106;16.688;2023-02-26T03:06:10;14.04;83.63
69464;DHT22;56665;41.106;16.688;2023-02-26T03:09:15;13.98;83.93
69464;DHT22;56665;41.106;16.688;2023-02-26T03:12:20;13.92;83.89
69464;DHT22;56665;41.106;16.688;2023-02-26T03:15:36;13.94;83.92
69464;DHT22;56665;41.106;16.688;2023-02-26T03:25:47;13.87;84.08
69464;DHT22;56665;41.106;16.688;2023-02-26T03:29:10;13.88;84.03
69464;DHT22;56665;41.106;16.688;2023-02-26T03:32:20;13.88;84.00
69464;DHT22;56665;41.106;16.688;2023-02-26T03:35:41;13.84;83.97
69464;DHT22;56665;41.106;16.688;2023-02-26T03:38:59;13.82;83.92
69464;DHT22;56665;41.106;16.688;2023-02-26T03:42:21;13.78;84.10
69464;DHT22;56665;41.106;16.688;2023-02-26T03:45:37;13.74;84.28
69464;DHT22;56665;41.106;16.688;2023-02-26T03:48:44;13.75;84.18
69464;DHT22;56665;41.106;16.688;2023-02-26T03:51:50;13.75;83.95
69464;DHT22;56665;41.106;16.688;2023-02-26T03:55:28;13.71;84.03
69464;DHT22;56665;41.106;16.688;2023-02-26T03:58:48;13.71;84.04
69464;DHT22;56665;41.106;16.688;2023-02-26T04:02:18;13.71;83.86
69464;DHT22;56665;41.106;16.688;2023-02-26T04:05:31;13.70;83.92
69464;DHT22;56665;41.106;16.688;2023-02-26T04:08:38;13.68;84.06
69464;DHT22;56665;41.106;16.688;2023-02-26T04:11:42;13.64;84.52
69464;DHT22;56665;41.106;16.688;2023-02-26T04:14:48;13.74;84.13
69464;DHT22;56665;41.106;16.688;2023-02-26T04:17:51;13.87;84.28
69464;DHT22;56665;41.106;16.688;2023-02-26T04:20:55;13.98;83.29
69464;DHT22;56665;41.106;16.688;2023-02-26T04:23:59;14.10;82.93
69464;DHT22;56665;41.106;16.688;2023-02-26T04:27:03;14.18;82.43
69464;DHT22;56665;41.106;16.688;2023-02-26T04:30:08;14.12;81.97
69464;DHT22;56665;41.106;16.688;2023-02-26T04:33:12;14.09;82.00
69464;DHT22;56665;41.106;16.688;2023-02-26T04:36:18;14.01;81.79
69464;DHT22;56665;41.106;16.688;2023-02-26T04:39:22;13.94;82.05
69464;DHT22;56665;41.106;16.688;2023-02-26T04:42:27;13.99;82.07
69464;DHT22;56665;41.106;16.688;2023-02-26T04:45:32;14.01;81.87
69464;DHT22;56665;41.106;16.688;2023-02-26T04:48:36;13.99;81.53
69464;DHT22;56665;41.106;16.688;2023-02-26T04:51:41;13.94;81.52
69464;DHT22;56665;41.106;16.688;2023-02-26T04:54:45;13.94;81.35
69464;DHT22;56665;41.106;16.688;2023-02-26T04:57:53;13.95;81.31
69464;DHT22;56665;41.106;16.688;2023-02-26T05:01:00;13.96;81.31
69464;DHT22;56665;41.106;16.688;2023-02-26T05:04:04;13.99;81.42
69464;DHT22;56665;41.106;16.688;2023-02-26T05:07:08;13.95;81.75
69464;DHT22;56665;41.106;16.688;2023-02-26T05:10:12;13.88;82.12
69464;DHT22;56665;41.106;16.688;2023-02-26T05:13:15;13.84;82.33
69464;DHT22;56665;41.106;16.688;2023-02-26T05:16:19;13.81;82.23
69464;DHT22;56665;41.106;16.688;2023-02-26T05:19:23;13.75;82.60
69464;DHT22;56665;41.106;16.688;2023-02-26T05:22:28;13.65;82.71
69464;DHT22;56665;41.106;16.688;2023-02-26T05:25:33;13.47;83.29
69464;DHT22;56665;41.106;16.688;2023-02-26T05:28:38;13.55;83.05
69464;DHT22;56665;41.106;16.688;2023-02-26T05:31:42;13.55;83.11
69464;DHT22;56665;41.106;16.688;2023-02-26T05:34:46;13.67;82.33
69464;DHT22;56665;41.106;16.688;2023-02-26T05:37:50;13.65;82.45
69464;DHT22;56665;41.106;16.688;2023-02-26T05:40:58;13.68;82.84
69464;DHT22;56665;41.106;16.688;2023-02-26T05:44:01;13.73;82.08
69464;DHT22;56665;41.106;16.688;2023-02-26T05:47:05;13.74;81.80
69464;DHT22;56665;41.106;16.688;2023-02-26T05:50:09;13.74;81.50
69464;DHT22;56665;41.106;16.688;2023-02-26T05:53:13;13.85;79.60
69464;DHT22;56665;41.106;16.688;2023-02-26T05:56:17;14.06;77.74
69464;DHT22;56665;41.106;16.688;2023-02-26T05:59:22;14.25;76.84
69464;DHT22;56665;41.106;16.688;2023-02-26T06:02:26;14.39;76.21
69464;DHT22;56665;41.106;16.688;2023-02-26T06:05:29;14.50;76.09
69464;DHT22;56665;41.106;16.688;2023-02-26T06:08:34;14.61;76.14
69464;DHT22;56665;41.106;16.688;2023-02-26T06:11:38;14.60;76.77
69464;DHT22;56665;41.106;16.688;2023-02-26T06:14:42;14.64;76.90
69464;DHT22;56665;41.106;16.688;2023-02-26T06:17:46;14.68;77.24
69464;DHT22;56665;41.106;16.688;2023-02-26T06:20:50;14.73;77.23
69464;DHT22;56665;41.106;16.688;2023-02-26T06:23:54;14.74;77.11
69464;DHT22;56665;41.106;16.688;2023-02-26T06:26:57;14.78;77.27
69464;DHT22;56665;41.106;16.688;2023-02-26T06:30:02;14.88;77.16
69464;DHT22;56665;41.106;16.688;2023-02-26T06:33:05;15.01;77.00
69464;DHT22;56665;41.106;16.688;2023-02-26T06:36:10;15.15;76.49
69464;DHT22;56665;41.106;16.688;2023-02-26T06:39:17;15.29;75.96
69464;DHT22;56665;41.106;16.688;2023-02-26T06:42:21;15.36;75.55
69464;DHT22;56665;41.106;16.688;2023-02-26T06:45:25;15.47;75.63
69464;DHT22;56665;41.106;16.688;2023-02-26T06:48:30;15.57;74.96
69464;DHT22;56665;41.106;16.688;2023-02-26T06:51:34;15.66;74.94
69464;DHT22;56665;41.106;16.688;2023-02-26T06:54:39;15.73;74.93
69464;DHT22;56665;41.106;16.688;2023-02-26T06:57:43;15.83;74.70
69464;DHT22;56665;41.106;16.688;2023-02-26T07:00:48;15.93;74.41
69464;DHT22;56665;41.106;16.688;2023-02-26T07:03:52;16.01;74.38
69464;DHT22;56665;41.106;16.688;2023-02-26T07:06:57;16.13;74.09
69464;DHT22;56665;41.106;16.688;2023-02-26T07:10:02;16.27;73.90
69464;DHT22;56665;41.106;16.688;2023-02-26T07:13:05;16.27;73.19
69464;DHT22;56665;41.106;16.688;2023-02-26T07:16:09;16.34;73.26
69464;DHT22;56665;41.106;16.688;2023-02-26T07:19:14;16.42;73.03
69464;DHT22;56665;41.106;16.688;2023-02-26T07:22:19;16.52;72.77
69464;DHT22;56665;41.106;16.688;2023-02-26T07:25:22;16.59;72.47
69464;DHT22;56665;41.106;16.688;2023-02-26T07:28:28;16.63;72.16
69464;DHT22;56665;41.106;16.688;2023-02-26T07:31:35;16.77;71.95
69464;DHT22;56665;41.106;16.688;2023-02-26T07:34:39;16.85;71.90
69464;DHT22;56665;41.106;16.688;2023-02-26T07:37:43;17.04;71.35
69464;DHT22;56665;41.106;16.688;2023-02-26T07:40:47;17.18;70.86
69464;DHT22;56665;41.106;16.688;2023-02-26T07:43:52;17.37;70.61
69464;DHT22;56665;41.106;16.688;2023-02-26T07:46:56;17.49;69.93
69464;DHT22;56665;41.106;16.688;2023-02-26T07:49:59;17.49;69.63
69464;DHT22;56665;41.106;16.688;2023-02-26T07:53:03;17.65;69.38
69464;DHT22;56665;41.106;16.688;2023-02-26T07:56:07;17.85;68.78
69464;DHT22;56665;41.106;16.688;2023-02-26T07:59:10;18.10;68.35
69464;DHT22;56665;41.106;16.688;2023-02-26T08:02:14;18.26;67.89
69464;DHT22;56665;41.106;16.688;2023-02-26T08:05:19;18.36;67.12
69464;DHT22;56665;41.106;16.688;2023-02-26T08:08:24;18.31;66.83
69464;DHT22;56665;41.106;16.688;2023-02-26T08:11:28;18.38;66.89
69464;DHT22;56665;41.106;16.688;2023-02-26T08:14:34;18.38;66.52
69464;DHT22;56665;41.106;16.688;2023-02-26T08:17:39;18.40;65.98
69464;DHT22;56665;41.106;16.688;2023-02-26T08:20:43;18.41;65.39
69464;DHT22;56665;41.106;16.688;2023-02-26T08:23:46;18.54;66.22
69464;DHT22;56665;41.106;16.688;2023-02-26T08:26:51;18.58;65.46
69464;DHT22;56665;41.106;16.688;2023-02-26T08:29:55;18.47;64.99
69464;DHT22;56665;41.106;16.688;2023-02-26T08:32:59;18.40;64.95
69464;DHT22;56665;41.106;16.688;2023-02-26T08:36:04;18.46;64.69
69464;DHT22;56665;41.106;16.688;2023-02-26T08:39:09;18.53;64.72
69464;DHT22;56665;41.106;16.688;2023-02-26T08:42:12;18.53;64.90
69464;DHT22;56665;41.106;16.688;2023-02-26T08:45:19;18.53;64.94
69464;DHT22;56665;41.106;16.688;2023-02-26T08:48:23;18.36;64.94
69464;DHT22;56665;41.106;16.688;2023-02-26T08:51:26;18.37;64.90
69464;DHT22;56665;41.106;16.688;2023-02-26T08:54:32;18.41;64.96
69464;DHT22;56665;41.106;16.688;2023-02-26T08:57:36;18.38;65.27
69464;DHT22;56665;41.106;16.688;2023-02-26T09:00:40;18.28;65.31
69464;DHT22;56665;41.106;16.688;2023-02-26T09:03:43;18.18;66.02
69464;DHT22;56665;41.106;16.688;2023-02-26T09:06:47;18.34;65.26
69464;DHT22;56665;41.106;16.688;2023-02-26T09:09:51;18.40;65.01
69464;DHT22;56665;41.106;16.688;2023-02-26T09:12:55;18.47;64.36
69464;DHT22;56665;41.106;16.688;2023-02-26T09:15:58;18.61;64.23
69464;DHT22;56665;41.106;16.688;2023-02-26T09:19:03;18.50;64.34
69464;DHT22;56665;41.106;16.688;2023-02-26T09:22:07;18.47;64.77
69464;DHT22;56665;41.106;16.688;2023-02-26T09:25:12;18.48;64.31
69464;DHT22;56665;41.106;16.688;2023-02-26T09:28:15;18.47;64.20
69464;DHT22;56665;41.106;16.688;2023-02-26T09:31:19;18.60;63.75
69464;DHT22;56665;41.106;16.688;2023-02-26T09:34:24;18.74;63.81
69464;DHT22;56665;41.106;16.688;2023-02-26T09:37:28;18.77;64.19
69464;DHT22;56665;41.106;16.688;2023-02-26T09:40:45;18.88;63.96
69464;DHT22;56665;41.106;16.688;2023-02-26T09:44:14;19.08;63.98
69464;DHT22;56665;41.106;16.688;2023-02-26T09:47:23;19.10;65.66
69464;DHT22;56665;41.106;16.688;2023-02-26T09:50:40;19.05;64.54
69464;DHT22;56665;41.106;16.688;2023-02-26T09:53:45;19.10;63.63
69464;DHT22;56665;41.106;16.688;2023-02-26T09:56:52;19.39;63.19
69464;DHT22;56665;41.106;16.688;2023-02-26T09:59:59;19.46;62.58
69464;DHT22;56665;41.106;16.688;2023-02-26T10:03:24;19.37;62.95
69464;DHT22;56665;41.106;16.688;2023-02-26T10:06:32;19.40;62.39
69464;DHT22;56665;41.106;16.688;2023-02-26T10:12:57;19.66;61.87
69464;DHT22;56665;41.106;16.688;2023-02-26T10:16:13;19.64;61.93
69464;DHT22;56665;41.106;16.688;2023-02-26T10:19:22;19.75;61.50
69464;DHT22;56665;41.106;16.688;2023-02-26T10:26:18;19.57;61.92
69464;DHT22;56665;41.106;16.688;2023-02-26T10:29:41;19.42;62.52
69464;DHT22;56665;41.106;16.688;2023-02-26T10:36:03;19.30;62.65
69464;DHT22;56665;41.106;16.688;2023-02-26T10:39:26;19.29;62.40
69464;DHT22;56665;41.106;16.688;2023-02-26T10:42:38;19.37;61.73
69464;DHT22;56665;41.106;16.688;2023-02-26T10:52:13;19.91;60.56
69464;DHT22;56665;41.106;16.688;2023-02-26T10:55:36;20.05;60.25
69464;DHT22;56665;41.106;16.688;2023-02-26T10:58:41;20.14;59.96
69464;DHT22;56665;41.106;16.688;2023-02-26T11:01:46;20.09;60.24
69464;DHT22;56665;41.106;16.688;2023-02-26T11:04:50;19.95;60.38
69464;DHT22;56665;41.106;16.688;2023-02-26T11:08:04;19.78;61.18
69464;DHT22;56665;41.106;16.688;2023-02-26T11:11:08;19.67;61.49
69464;DHT22;56665;41.106;16.688;2023-02-26T11:14:13;19.56;61.89
69464;DHT22;56665;41.106;16.688;2023-02-26T11:17:20;19.74;62.97
69464;DHT22;56665;41.106;16.688;2023-02-26T11:20:36;19.95;61.96
69464;DHT22;56665;41.106;16.688;2023-02-26T11:23:41;19.98;61.23
69464;DHT22;56665;41.106;16.688;2023-02-26T11:26:47;20.00;61.31
69464;DHT22;56665;41.106;16.688;2023-02-26T11:30:14;20.14;61.36
69464;DHT22;56665;41.106;16.688;2023-02-26T11:33:31;20.24;60.47
69464;DHT22;56665;41.106;16.688;2023-02-26T11:36:40;20.52;60.10
69464;DHT22;56665;41.106;16.688;2023-02-26T11:39:46;20.57;59.81
69464;DHT22;56665;41.106;16.688;2023-02-26T11:42:52;20.56;59.49
69464;DHT22;56665;41.106;16.688;2023-02-26T11:45:59;20.67;59.99
69464;DHT22;56665;41.106;16.688;2023-02-26T11:49:05;20.94;59.13
69464;DHT22;56665;41.106;16.688;2023-02-26T11:52:31;21.28;57.36
69464;DHT22;56665;41.106;16.688;2023-02-26T11:55:42;21.41;55.52
69464;DHT22;56665;41.106;16.688;2023-02-26T11:58:53;21.56;54.59
69464;DHT22;56665;41.106;16.688;2023-02-26T12:02:05;21.39;54.65
69464;DHT22;56665;41.106;16.688;2023-02-26T12:05:16;21.30;54.94
69464;DHT22;56665;41.106;16.688;2023-02-26T12:35:06;21.06;56.82
69464;DHT22;56665;41.106;16.688;2023-02-26T13:04:28;19.03;62.46
69464;DHT22;56665;41.106;16.688;2023-02-26T13:14:26;18.98;63.37
69464;DHT22;56665;41.106;16.688;2023-02-26T13:17:42;18.85;62.73
69464;DHT22;56665;41.106;16.688;2023-02-26T13:21:14;18.65;63.00
69464;DHT22;56665;41.106;16.688;2023-02-26T13:27:50;18.44;63.24
69464;DHT22;56665;41.106;16.688;2023-02-26T13:30:57;18.26;64.28
69464;DHT22;56665;41.106;16.688;2023-02-26T13:34:09;18.05;64.92
69464;DHT22;56665;41.106;16.688;2023-02-26T13:37:26;17.76;64.67
69464;DHT22;56665;41.106;16.688;2023-02-26T13:40:44;17.47;62.39
69464;DHT22;56665;41.106;16.688;2023-02-26T13:51:04;16.82;65.46
69464;DHT22;56665;41.106;16.688;2023-02-26T13:57:34;16.52;72.95
69464;DHT22;56665;41.106;16.688;2023-02-26T14:00:45;16.24;78.56
69464;DHT22;56665;41.106;16.688;2023-02-26T14:04:01;15.84;81.43
69464;DHT22;56665;41.106;16.688;2023-02-26T14:07:13;15.45;84.14
69464;DHT22;56665;41.106;16.688;2023-02-26T14:10:44;15.18;85.24
69464;DHT22;56665;41.106;16.688;2023-02-26T14:14:18;14.97;86.34
69464;DHT22;56665;41.106;16.688;2023-02-26T14:17:38;15.01;85.12
69464;DHT22;56665;41.106;16.688;2023-02-26T14:20:43;15.01;85.44
69464;DHT22;56665;41.106;16.688;2023-02-26T14:23:49;15.05;86.26
69464;DHT22;56665;41.106;16.688;2023-02-26T14:30:33;14.97;85.52
69464;DHT22;56665;41.106;16.688;2023-02-26T14:34:06;14.91;85.37
69464;DHT22;56665;41.106;16.688;2023-02-26T14:37:06;14.73;83.81
69464;DHT22;56665;41.106;16.688;2023-02-26T14:40:19;14.46;84.30
69464;DHT22;56665;41.106;16.688;2023-02-26T14:43:37;14.25;83.18
69464;DHT22;56665;41.106;16.688;2023-02-26T14:46:42;14.19;84.04
69464;DHT22;56665;41.106;16.688;2023-02-26T14:49:47;14.12;81.67
69464;DHT22;56665;41.106;16.688;2023-02-26T15:10:40;14.32;83.83
69464;DHT22;56665;41.106;16.688;2023-02-26T15:14:27;14.39;83.72
69464;DHT22;56665;41.106;16.688;2023-02-26T15:21:37;14.39;82.77
69464;DHT22;56665;41.106;16.688;2023-02-26T15:24:45;14.37;81.86
69464;DHT22;56665;41.106;16.688;2023-02-26T15:27:48;14.40;82.16
69464;DHT22;56665;41.106;16.688;2023-02-26T15:30:52;14.37;82.08
69464;DHT22;56665;41.106;16.688;2023-02-26T15:33:57;14.41;82.42
69464;DHT22;56665;41.106;16.688;2023-02-26T15:37:00;14.41;82.79
69464;DHT22;56665;41.106;16.688;2023-02-26T15:40:06;14.44;82.56
69464;DHT22;56665;41.106;16.688;2023-02-26T15:43:15;14.49;82.24
69464;DHT22;56665;41.106;16.688;2023-02-26T15:46:22;14.53;82.49
69464;DHT22;56665;41.106;16.688;2023-02-26T15:49:33;14.59;82.32
69464;DHT22;56665;41.106;16.688;2023-02-26T15:52:37;14.60;82.32
69464;DHT22;56665;41.106;16.688;2023-02-26T15:55:49;14.63;82.35
69464;DHT22;56665;41.106;16.688;2023-02-26T15:58:58;14.61;82.23
69464;DHT22;56665;41.106;16.688;2023-02-26T16:02:02;14.60;82.28
69464;DHT22;56665;41.106;16.688;2023-02-26T16:05:07;14.57;82.22
69464;DHT22;56665;41.106;16.688;2023-02-26T16:08:13;14.55;82.05
69464;DHT22;56665;41.106;16.688;2023-02-26T16:11:19;14.56;82.05
69464;DHT22;56665;41.106;16.688;2023-02-26T16:14:29;14.50;81.86
69464;DHT22;56665;41.106;16.688;2023-02-26T16:17:41;14.47;81.91
69464;DHT22;56665;41.106;16.688;2023-02-26T16:20:46;14.43;81.50
69464;DHT22;56665;41.106;16.688;2023-02-26T16:23:53;14.36;81.18
69464;DHT22;56665;41.106;16.688;2023-02-26T16:27:02;14.30;81.54
69464;DHT22;56665;41.106;16.688;2023-02-26T16:30:18;14.29;81.27
69464;DHT22;56665;41.106;16.688;2023-02-26T16:33:26;14.23;80.67
69464;DHT22;56665;41.106;16.688;2023-02-26T16:36:35;14.22;79.96
69464;DHT22;56665;41.106;16.688;2023-02-26T16:39:43;14.18;79.60
69464;DHT22;56665;41.106;16.688;2023-02-26T16:43:03;14.15;79.13
69464;DHT22;56665;41.106;16.688;2023-02-26T16:46:12;14.10;78.90
69464;DHT22;56665;41.106;16.688;2023-02-26T16:49:26;13.99;77.88
69464;DHT22;56665;41.106;16.688;2023-02-26T16:52:33;13.95;78.40
69464;DHT22;56665;41.106;16.688;2023-02-26T16:55:38;13.91;78.16
69464;DHT22;56665;41.106;16.688;2023-02-26T16:59:17;13.87;78.30
69464;DHT22;56665;41.106;16.688;2023-02-26T17:02:28;13.81;76.23
69464;DHT22;56665;41.106;16.688;2023-02-26T17:05:35;13.77;73.25
69464;DHT22;56665;41.106;16.688;2023-02-26T17:08:49;13.74;71.53
69464;DHT22;56665;41.106;16.688;2023-02-26T17:13:01;13.67;68.99
69464;DHT22;56665;41.106;16.688;2023-02-26T17:16:02;13.64;69.95
69464;DHT22;56665;41.106;16.688;2023-02-26T17:19:06;13.62;67.80
69464;DHT22;56665;41.106;16.688;2023-02-26T17:22:14;13.62;68.09
69464;DHT22;56665;41.106;16.688;2023-02-26T17:25:19;13.61;68.38
69464;DHT22;56665;41.106;16.688;2023-02-26T17:28:26;13.58;67.49
69464;DHT22;56665;41.106;16.688;2023-02-26T17:31:30;13.58;67.79
69464;DHT22;56665;41.106;16.688;2023-02-26T17:34:34;13.59;66.31
69464;DHT22;56665;41.106;16.688;2023-02-26T17:37:39;13.58;66.77
69464;DHT22;56665;41.106;16.688;2023-02-26T17:40:44;13.57;66.22
69464;DHT22;56665;41.106;16.688;2023-02-26T17:43:50;13.57;66.32
69464;DHT22;56665;41.106;16.688;2023-02-26T17:46:54;13.51;66.29
69464;DHT22;56665;41.106;16.688;2023-02-26T17:49:58;13.43;67.33
69464;DHT22;56665;41.106;16.688;2023-02-26T17:53:03;13.41;67.80
69464;DHT22;56665;41.106;16.688;2023-02-26T17:56:13;13.30;67.25
69464;DHT22;56665;41.106;16.688;2023-02-26T17:59:18;13.26;67.44
69464;DHT22;56665;41.106;16.688;2023-02-26T18:02:24;13.22;68.55
69464;DHT22;56665;41.106;16.688;2023-02-26T18:05:29;13.20;68.60
69464;DHT22;56665;41.106;16.688;2023-02-26T18:08:35;13.17;68.96
69464;DHT22;56665;41.106;16.688;2023-02-26T18:11:39;13.20;68.32
69464;DHT22;56665;41.106;16.688;2023-02-26T18:14:45;13.17;68.01
69464;DHT22;56665;41.106;16.688;2023-02-26T18:17:49;13.16;68.19
69464;DHT22;56665;41.106;16.688;2023-02-26T18:20:53;13.12;68.64
69464;DHT22;56665;41.106;16.688;2023-02-26T18:23:59;13.09;69.09
69464;DHT22;56665;41.106;16.688;2023-02-26T18:27:03;13.10;68.68
69464;DHT22;56665;41.106;16.688;2023-02-26T18:30:19;13.06;68.46
69464;DHT22;56665;41.106;16.688;2023-02-26T18:33:25;13.00;68.67
69464;DHT22;56665;41.106;16.688;2023-02-26T18:36:32;12.98;68.49
69464;DHT22;56665;41.106;16.688;2023-02-26T18:39:38;12.96;68.47
69464;DHT22;56665;41.106;16.688;2023-02-26T18:42:42;12.92;68.77
69464;DHT22;56665;41.106;16.688;2023-02-26T18:45:49;12.89;68.73
69464;DHT22;56665;41.106;16.688;2023-02-26T18:48:55;12.86;68.75
69464;DHT22;56665;41.106;16.688;2023-02-26T18:51:58;12.88;69.32
69464;DHT22;56665;41.106;16.688;2023-02-26T18:55:04;12.83;68.26
69464;DHT22;56665;41.106;16.688;2023-02-26T18:58:08;12.68;68.36
69464;DHT22;56665;41.106;16.688;2023-02-26T19:01:12;12.57;68.43
69464;DHT22;56665;41.106;16.688;2023-02-26T19:04:16;12.57;69.32
69464;DHT22;56665;41.106;16.688;2023-02-26T19:07:20;12.54;68.94
69464;DHT22;56665;41.106;16.688;2023-02-26T19:10:24;12.54;69.77
69464;DHT22;56665;41.106;16.688;2023-02-26T19:13:27;12.52;70.61
69464;DHT22;56665;41.106;16.688;2023-02-26T19:16:31;12.55;70.52
69464;DHT22;56665;41.106;16.688;2023-02-26T19:19:37;12.62;70.04
69464;DHT22;56665;41.106;16.688;2023-02-26T19:22:45;12.67;69.67
69464;DHT22;56665;41.106;16.688;2023-02-26T19:25:50;12.67;69.69
69464;DHT22;56665;41.106;16.688;2023-02-26T19:28:56;12.67;70.26
69464;DHT22;56665;41.106;16.688;2023-02-26T19:32:02;12.69;69.27
69464;DHT22;56665;41.106;16.688;2023-02-26T19:35:07;12.62;69.28
69464;DHT22;56665;41.106;16.688;2023-02-26T19:38:12;12.57;69.52
69464;DHT22;56665;41.106;16.688;2023-02-26T19:41:17;12.54;69.76
69464;DHT22;56665;41.106;16.688;2023-02-26T19:44:22;12.49;69.55
69464;DHT22;56665;41.106;16.688;2023-02-26T19:47:26;12.44;70.05
69464;DHT22;56665;41.106;16.688;2023-02-26T19:50:30;12.44;70.14
69464;DHT22;56665;41.106;16.688;2023-02-26T19:53:37;12.49;70.72
69464;DHT22;56665;41.106;16.688;2023-02-26T19:56:41;12.51;70.36
69464;DHT22;56665;41.106;16.688;2023-02-26T19:59:45;12.48;69.63
69464;DHT22;56665;41.106;16.688;2023-02-26T20:02:49;12.42;70.50
69464;DHT22;56665;41.106;16.688;2023-02-26T20:05:54;12.45;70.40
69464;DHT22;56665;41.106;16.688;2023-02-26T20:08:58;12.45;70.88
69464;DHT22;56665;41.106;16.688;2023-02-26T20:12:03;12.49;69.87
69464;DHT22;56665;41.106;16.688;2023-02-26T20:15:10;12.51;70.27
69464;DHT22;56665;41.106;16.688;2023-02-26T20:18:17;12.48;70.74
69464;DHT22;56665;41.106;16.688;2023-02-26T20:21:22;12.38;71.23
69464;DHT22;56665;41.106;16.688;2023-02-26T20:24:26;12.21;71.27
69464;DHT22;56665;41.106;16.688;2023-02-26T20:27:30;12.18;71.83
69464;DHT22;56665;41.106;16.688;2023-02-26T20:30:33;12.14;71.84
69464;DHT22;56665;41.106;16.688;2023-02-26T20:33:37;12.12;71.57
69464;DHT22;56665;41.106;16.688;2023-02-26T20:36:43;12.06;71.36
69464;DHT22;56665;41.106;16.688;2023-02-26T20:39:48;12.13;71.84
69464;DHT22;56665;41.106;16.688;2023-02-26T20:42:52;12.23;71.46
69464;DHT22;56665;41.106;16.688;2023-02-26T20:45:56;12.33;70.80
69464;DHT22;56665;41.106;16.688;2023-02-26T20:49:00;12.37;70.29
69464;DHT22;56665;41.106;16.688;2023-02-26T20:52:05;12.31;71.18
69464;DHT22;56665;41.106;16.688;2023-02-26T20:55:09;12.21;71.67
69464;DHT22;56665;41.106;16.688;2023-02-26T20:58:14;12.14;71.89
69464;DHT22;56665;41.106;16.688;2023-02-26T21:01:18;12.14;71.88
69464;DHT22;56665;41.106;16.688;2023-02-26T21:04:22;12.14;71.65
69464;DHT22;56665;41.106;16.688;2023-02-26T21:07:26;12.20;71.59
69464;DHT22;56665;41.106;16.688;2023-02-26T21:10:31;12.27;71.32
69464;DHT22;56665;41.106;16.688;2023-02-26T21:13:35;12.28;70.85
69464;DHT22;56665;41.106;16.688;2023-02-26T21:16:40;12.33;70.53
69464;DHT22;56665;41.106;16.688;2023-02-26T21:19:45;12.36;70.71
69464;DHT22;56665;41.106;16.688;2023-02-26T21:22:51;12.40;70.65
69464;DHT22;56665;41.106;16.688;2023-02-26T21:25:56;12.41;70.24
69464;DHT22;56665;41.106;16.688;2023-02-26T21:29:00;12.44;70.47
69464;DHT22;56665;41.106;16.688;2023-02-26T21:32:05;12.40;70.83
69464;DHT22;56665;41.106;16.688;2023-02-26T21:35:10;12.47;71.12
69464;DHT22;56665;41.106;16.688;2023-02-26T21:38:18;12.49;70.73
69464;DHT22;56665;41.106;16.688;2023-02-26T21:41:22;12.49;70.61
69464;DHT22;56665;41.106;16.688;2023-02-26T21:44:26;12.52;70.11
69464;DHT22;56665;41.106;16.688;2023-02-26T21:47:31;12.54;70.05
69464;DHT22;56665;41.106;16.688;2023-02-26T21:50:38;12.41;70.51
69464;DHT22;56665;41.106;16.688;2023-02-26T21:53:42;12.28;70.97
69464;DHT22;56665;41.106;16.688;2023-02-26T21:56:48;12.20;70.78
69464;DHT22;56665;41.106;16.688;2023-02-26T21:59:53;12.23;70.07
69464;DHT22;56665;41.106;16.688;2023-02-26T22:02:57;12.17;70.48